sensor_id;sensor_type;location;lat;lon;timestamp;P1;durP1;ratioP1;P2;durP2;ratioP2
5391;SDS011;2719;53.624;9.786;2023-08-30T00:00:26;1.20;;;0.63;;
5391;SDS011;2719;53.624;9.786;2023-08-30T00:02:52;1.60;;;0.60;;
5391;SDS011;2719;53.624;9.786;2023-08-30T00:05:19;1.33;;;0.53;;
5391;SDS011;2719;53.624;9.786;2023-08-30T00:07:46;2.10;;;0.50;;
5391;SDS011;2719;53.624;9.786;2023-08-30T00:10:12;2.17;;;0.50;;
5391;SDS011;2719;53.624;9.786;2023-08-30T00:12:39;2.73;;;0.70;;
5391;SDS011;2719;53.624;9.786;2023-08-30T00:15:06;2.80;;;0.57;;
5391;SDS011;2719;53.624;9.786;2023-08-30T00:17:35;1.10;;;0.60;;
5391;SDS011;2719;53.624;9.786;2023-08-30T00:20:02;8.03;;;1.70;;
5391;SDS011;2719;53.624;9.786;2023-08-30T00:22:29;8.30;;;1.07;;
5391;SDS011;2719;53.624;9.786;2023-08-30T00:24:56;1.30;;;0.60;;
5391;SDS011;2719;53.624;9.786;2023-08-30T00:27:22;1.00;;;0.60;;
5391;SDS011;2719;53.624;9.786;2023-08-30T00:29:49;1.80;;;0.90;;
5391;SDS011;2719;53.624;9.786;2023-08-30T00:32:16;1.13;;;0.60;;
5391;SDS011;2719;53.624;9.786;2023-08-30T00:34:44;1.33;;;0.63;;
5391;SDS011;2719;53.624;9.786;2023-08-30T00:37:11;1.70;;;0.77;;
5391;SDS011;2719;53.624;9.786;2023-08-30T00:39:37;1.23;;;0.73;;
5391;SDS011;2719;53.624;9.786;2023-08-30T00:42:04;1.43;;;0.70;;
5391;SDS011;2719;53.624;9.786;2023-08-30T00:44:32;2.10;;;0.80;;
5391;SDS011;2719;53.624;9.786;2023-08-30T00:46:59;2.10;;;0.70;;
5391;SDS011;2719;53.624;9.786;2023-08-30T00:49:26;7.17;;;0.70;;
5391;SDS011;2719;53.624;9.786;2023-08-30T00:51:54;1.47;;;0.50;;
5391;SDS011;2719;53.624;9.786;2023-08-30T00:54:22;3.80;;;0.70;;
5391;SDS011;2719;53.624;9.786;2023-08-30T00:56:49;0.90;;;0.60;;
5391;SDS011;2719;53.624;9.786;2023-08-30T00:59:16;0.90;;;0.50;;
5391;SDS011;2719;53.624;9.786;2023-08-30T01:01:43;1.57;;;0.60;;
5391;SDS011;2719;53.624;9.786;2023-08-30T01:04:11;1.07;;;0.50;;
5391;SDS011;2719;53.624;9.786;2023-08-30T01:06:38;1.40;;;0.70;;
5391;SDS011;2719;53.624;9.786;2023-08-30T01:09:06;2.57;;;0.60;;
5391;SDS011;2719;53.624;9.786;2023-08-30T01:11:35;1.20;;;0.50;;
5391;SDS011;2719;53.624;9.786;2023-08-30T01:14:06;2.90;;;0.60;;
5391;SDS011;2719;53.624;9.786;2023-08-30T01:16:34;1.83;;;0.50;;
5391;SDS011;2719;53.624;9.786;2023-08-30T01:19:03;2.03;;;0.50;;
5391;SDS011;2719;53.624;9.786;2023-08-30T01:21:43;0.90;;;0.40;;
5391;SDS011;2719;53.624;9.786;2023-08-30T01:24:30;1.00;;;0.60;;
5391;SDS011;2719;53.624;9.786;2023-08-30T01:27:09;3.23;;;0.70;;
5391;SDS011;2719;53.624;9.786;2023-08-30T01:29:37;1.20;;;0.50;;
5391;SDS011;2719;53.624;9.786;2023-08-30T01:32:08;1.63;;;0.57;;
5391;SDS011;2719;53.624;9.786;2023-08-30T01:34:36;1.97;;;0.53;;
5391;SDS011;2719;53.624;9.786;2023-08-30T01:37:04;5.07;;;0.50;;
5391;SDS011;2719;53.624;9.786;2023-08-30T01:39:32;1.47;;;0.50;;
5391;SDS011;2719;53.624;9.786;2023-08-30T01:42:00;2.13;;;0.50;;
5391;SDS011;2719;53.624;9.786;2023-08-30T01:44:29;1.50;;;0.53;;
5391;SDS011;2719;53.624;9.786;2023-08-30T01:46:56;1.63;;;0.70;;
5391;SDS011;2719;53.624;9.786;2023-08-30T01:49:24;1.97;;;0.60;;
5391;SDS011;2719;53.624;9.786;2023-08-30T01:51:52;3.43;;;0.47;;
5391;SDS011;2719;53.624;9.786;2023-08-30T01:54:19;1.60;;;0.60;;
5391;SDS011;2719;53.624;9.786;2023-08-30T01:56:47;1.77;;;0.63;;
5391;SDS011;2719;53.624;9.786;2023-08-30T01:59:13;1.30;;;0.50;;
5391;SDS011;2719;53.624;9.786;2023-08-30T02:01:41;1.37;;;0.60;;
5391;SDS011;2719;53.624;9.786;2023-08-30T02:04:08;1.77;;;0.60;;
5391;SDS011;2719;53.624;9.786;2023-08-30T02:06:35;1.83;;;0.50;;
5391;SDS011;2719;53.624;9.786;2023-08-30T02:09:09;1.10;;;0.60;;
5391;SDS011;2719;53.624;9.786;2023-08-30T02:11:40;1.43;;;0.70;;
5391;SDS011;2719;53.624;9.786;2023-08-30T02:14:10;2.03;;;0.60;;
5391;SDS011;2719;53.624;9.786;2023-08-30T02:16:43;1.40;;;0.60;;
5391;SDS011;2719;53.624;9.786;2023-08-30T02:19:11;1.00;;;0.60;;
5391;SDS011;2719;53.624;9.786;2023-08-30T02:21:41;3.40;;;0.70;;
5391;SDS011;2719;53.624;9.786;2023-08-30T02:24:08;2.47;;;0.70;;
5391;SDS011;2719;53.624;9.786;2023-08-30T02:26:35;3.63;;;0.87;;
5391;SDS011;2719;53.624;9.786;2023-08-30T02:29:02;2.37;;;1.00;;
5391;SDS011;2719;53.624;9.786;2023-08-30T02:31:29;2.93;;;0.87;;
5391;SDS011;2719;53.624;9.786;2023-08-30T02:33:57;3.23;;;0.90;;
5391;SDS011;2719;53.624;9.786;2023-08-30T02:36:24;1.93;;;0.83;;
5391;SDS011;2719;53.624;9.786;2023-08-30T02:38:50;2.83;;;1.00;;
5391;SDS011;2719;53.624;9.786;2023-08-30T02:41:17;1.63;;;0.70;;
5391;SDS011;2719;53.624;9.786;2023-08-30T02:43:44;1.80;;;0.87;;
5391;SDS011;2719;53.624;9.786;2023-08-30T02:46:10;1.47;;;0.70;;
5391;SDS011;2719;53.624;9.786;2023-08-30T02:48:37;1.77;;;0.70;;
5391;SDS011;2719;53.624;9.786;2023-08-30T02:51:05;3.13;;;0.70;;
5391;SDS011;2719;53.624;9.786;2023-08-30T02:53:31;4.47;;;0.70;;
5391;SDS011;2719;53.624;9.786;2023-08-30T02:55:58;6.97;;;0.80;;
5391;SDS011;2719;53.624;9.786;2023-08-30T02:58:25;4.27;;;0.90;;
5391;SDS011;2719;53.624;9.786;2023-08-30T03:00:52;4.50;;;0.80;;
5391;SDS011;2719;53.624;9.786;2023-08-30T03:03:18;1.30;;;0.70;;
5391;SDS011;2719;53.624;9.786;2023-08-30T03:05:45;1.70;;;1.10;;
5391;SDS011;2719;53.624;9.786;2023-08-30T03:08:13;2.40;;;1.13;;
5391;SDS011;2719;53.624;9.786;2023-08-30T03:10:40;3.70;;;1.10;;
5391;SDS011;2719;53.624;9.786;2023-08-30T03:13:06;1.30;;;0.83;;
5391;SDS011;2719;53.624;9.786;2023-08-30T03:15:33;1.30;;;0.70;;
5391;SDS011;2719;53.624;9.786;2023-08-30T03:18:00;9.23;;;0.90;;
5391;SDS011;2719;53.624;9.786;2023-08-30T03:20:26;2.90;;;1.03;;
5391;SDS011;2719;53.624;9.786;2023-08-30T03:22:55;3.57;;;1.07;;
5391;SDS011;2719;53.624;9.786;2023-08-30T03:25:24;1.73;;;1.07;;
5391;SDS011;2719;53.624;9.786;2023-08-30T03:27:50;1.10;;;0.80;;
5391;SDS011;2719;53.624;9.786;2023-08-30T03:30:17;1.73;;;0.80;;
5391;SDS011;2719;53.624;9.786;2023-08-30T03:32:44;3.23;;;1.30;;
5391;SDS011;2719;53.624;9.786;2023-08-30T03:35:10;2.87;;;1.07;;
5391;SDS011;2719;53.624;9.786;2023-08-30T03:37:39;5.30;;;1.00;;
5391;SDS011;2719;53.624;9.786;2023-08-30T03:40:06;2.47;;;1.27;;
5391;SDS011;2719;53.624;9.786;2023-08-30T03:42:35;2.80;;;1.10;;
5391;SDS011;2719;53.624;9.786;2023-08-30T03:45:02;3.50;;;1.20;;
5391;SDS011;2719;53.624;9.786;2023-08-30T03:47:30;1.23;;;0.70;;
5391;SDS011;2719;53.624;9.786;2023-08-30T03:49:57;2.40;;;1.07;;
5391;SDS011;2719;53.624;9.786;2023-08-30T03:52:24;3.23;;;1.00;;
5391;SDS011;2719;53.624;9.786;2023-08-30T03:54:50;2.77;;;1.20;;
5391;SDS011;2719;53.624;9.786;2023-08-30T03:57:17;4.97;;;2.03;;
5391;SDS011;2719;53.624;9.786;2023-08-30T03:59:45;3.63;;;1.50;;
5391;SDS011;2719;53.624;9.786;2023-08-30T04:02:12;3.93;;;1.30;;
5391;SDS011;2719;53.624;9.786;2023-08-30T04:04:38;3.53;;;1.87;;
5391;SDS011;2719;53.624;9.786;2023-08-30T04:07:05;1.93;;;1.30;;
5391;SDS011;2719;53.624;9.786;2023-08-30T04:09:32;3.27;;;1.53;;
5391;SDS011;2719;53.624;9.786;2023-08-30T04:11:58;3.43;;;1.63;;
5391;SDS011;2719;53.624;9.786;2023-08-30T04:14:25;2.70;;;1.80;;
5391;SDS011;2719;53.624;9.786;2023-08-30T04:16:53;3.10;;;1.20;;
5391;SDS011;2719;53.624;9.786;2023-08-30T04:19:20;2.90;;;1.63;;
5391;SDS011;2719;53.624;9.786;2023-08-30T04:21:47;7.10;;;1.77;;
5391;SDS011;2719;53.624;9.786;2023-08-30T04:24:13;3.93;;;2.30;;
5391;SDS011;2719;53.624;9.786;2023-08-30T04:26:40;4.43;;;2.07;;
5391;SDS011;2719;53.624;9.786;2023-08-30T04:29:07;3.50;;;2.23;;
5391;SDS011;2719;53.624;9.786;2023-08-30T04:31:33;2.87;;;1.70;;
5391;SDS011;2719;53.624;9.786;2023-08-30T04:34:01;2.93;;;2.30;;
5391;SDS011;2719;53.624;9.786;2023-08-30T04:36:28;3.53;;;2.10;;
5391;SDS011;2719;53.624;9.786;2023-08-30T04:38:55;2.80;;;1.77;;
5391;SDS011;2719;53.624;9.786;2023-08-30T04:41:21;5.80;;;2.03;;
5391;SDS011;2719;53.624;9.786;2023-08-30T04:43:48;3.30;;;1.70;;
5391;SDS011;2719;53.624;9.786;2023-08-30T04:46:15;3.17;;;2.00;;
5391;SDS011;2719;53.624;9.786;2023-08-30T04:48:41;6.80;;;2.50;;
5391;SDS011;2719;53.624;9.786;2023-08-30T04:51:09;6.60;;;3.23;;
5391;SDS011;2719;53.624;9.786;2023-08-30T04:53:36;3.47;;;2.20;;
5391;SDS011;2719;53.624;9.786;2023-08-30T04:56:09;4.77;;;2.53;;
5391;SDS011;2719;53.624;9.786;2023-08-30T04:58:37;12.00;;;2.97;;
5391;SDS011;2719;53.624;9.786;2023-08-30T05:01:04;4.80;;;3.20;;
5391;SDS011;2719;53.624;9.786;2023-08-30T05:03:31;5.23;;;2.90;;
5391;SDS011;2719;53.624;9.786;2023-08-30T05:05:58;4.67;;;2.87;;
5391;SDS011;2719;53.624;9.786;2023-08-30T05:08:26;4.73;;;3.03;;
5391;SDS011;2719;53.624;9.786;2023-08-30T05:10:53;3.50;;;2.50;;
5391;SDS011;2719;53.624;9.786;2023-08-30T05:13:20;5.10;;;3.87;;
5391;SDS011;2719;53.624;9.786;2023-08-30T05:15:47;6.13;;;3.30;;
5391;SDS011;2719;53.624;9.786;2023-08-30T05:18:13;7.57;;;3.93;;
5391;SDS011;2719;53.624;9.786;2023-08-30T05:20:40;8.43;;;2.70;;
5391;SDS011;2719;53.624;9.786;2023-08-30T05:23:07;6.63;;;3.30;;
5391;SDS011;2719;53.624;9.786;2023-08-30T05:25:35;5.70;;;3.00;;
5391;SDS011;2719;53.624;9.786;2023-08-30T05:28:01;6.20;;;3.60;;
5391;SDS011;2719;53.624;9.786;2023-08-30T05:30:28;5.70;;;3.20;;
5391;SDS011;2719;53.624;9.786;2023-08-30T05:32:55;6.00;;;3.60;;
5391;SDS011;2719;53.624;9.786;2023-08-30T05:35:22;9.37;;;4.73;;
5391;SDS011;2719;53.624;9.786;2023-08-30T05:37:48;4.30;;;3.20;;
5391;SDS011;2719;53.624;9.786;2023-08-30T05:40:15;8.33;;;4.53;;
5391;SDS011;2719;53.624;9.786;2023-08-30T05:42:44;6.07;;;3.73;;
5391;SDS011;2719;53.624;9.786;2023-08-30T05:45:11;13.43;;;4.10;;
5391;SDS011;2719;53.624;9.786;2023-08-30T05:47:37;5.37;;;3.77;;
5391;SDS011;2719;53.624;9.786;2023-08-30T05:50:04;5.73;;;4.40;;
5391;SDS011;2719;53.624;9.786;2023-08-30T05:52:31;8.03;;;4.50;;
5391;SDS011;2719;53.624;9.786;2023-08-30T05:54:59;6.30;;;3.47;;
5391;SDS011;2719;53.624;9.786;2023-08-30T05:57:26;6.27;;;3.97;;
5391;SDS011;2719;53.624;9.786;2023-08-30T05:59:59;11.73;;;4.30;;
5391;SDS011;2719;53.624;9.786;2023-08-30T06:02:26;7.87;;;5.10;;
5391;SDS011;2719;53.624;9.786;2023-08-30T06:04:52;7.70;;;4.73;;
5391;SDS011;2719;53.624;9.786;2023-08-30T06:07:19;6.97;;;4.13;;
5391;SDS011;2719;53.624;9.786;2023-08-30T06:09:46;7.70;;;4.67;;
5391;SDS011;2719;53.624;9.786;2023-08-30T06:12:12;5.70;;;3.63;;
5391;SDS011;2719;53.624;9.786;2023-08-30T06:14:39;6.17;;;3.80;;
5391;SDS011;2719;53.624;9.786;2023-08-30T06:17:07;5.90;;;4.43;;
5391;SDS011;2719;53.624;9.786;2023-08-30T06:19:33;11.27;;;4.47;;
5391;SDS011;2719;53.624;9.786;2023-08-30T06:22:00;7.53;;;4.13;;
5391;SDS011;2719;53.624;9.786;2023-08-30T06:24:27;5.00;;;3.90;;
5391;SDS011;2719;53.624;9.786;2023-08-30T06:26:53;6.07;;;4.03;;
5391;SDS011;2719;53.624;9.786;2023-08-30T06:29:21;6.40;;;4.30;;
5391;SDS011;2719;53.624;9.786;2023-08-30T06:31:48;6.23;;;3.80;;
5391;SDS011;2719;53.624;9.786;2023-08-30T06:34:16;7.00;;;4.30;;
5391;SDS011;2719;53.624;9.786;2023-08-30T06:36:42;8.23;;;4.70;;
5391;SDS011;2719;53.624;9.786;2023-08-30T06:39:09;17.73;;;6.10;;
5391;SDS011;2719;53.624;9.786;2023-08-30T06:41:35;7.37;;;5.17;;
5391;SDS011;2719;53.624;9.786;2023-08-30T06:44:02;5.60;;;4.37;;
5391;SDS011;2719;53.624;9.786;2023-08-30T06:46:29;7.00;;;4.97;;
5391;SDS011;2719;53.624;9.786;2023-08-30T06:48:56;6.57;;;4.50;;
5391;SDS011;2719;53.624;9.786;2023-08-30T06:51:24;8.83;;;5.57;;
5391;SDS011;2719;53.624;9.786;2023-08-30T06:53:50;7.00;;;5.10;;
5391;SDS011;2719;53.624;9.786;2023-08-30T06:56:17;11.63;;;5.77;;
5391;SDS011;2719;53.624;9.786;2023-08-30T06:58:44;7.23;;;5.30;;
5391;SDS011;2719;53.624;9.786;2023-08-30T07:01:10;11.20;;;5.17;;
5391;SDS011;2719;53.624;9.786;2023-08-30T07:03:37;8.30;;;5.27;;
5391;SDS011;2719;53.624;9.786;2023-08-30T07:06:05;7.43;;;5.10;;
5391;SDS011;2719;53.624;9.786;2023-08-30T07:08:33;14.50;;;5.37;;
5391;SDS011;2719;53.624;9.786;2023-08-30T07:11:00;10.80;;;6.50;;
5391;SDS011;2719;53.624;9.786;2023-08-30T07:13:26;8.00;;;5.27;;
5391;SDS011;2719;53.624;9.786;2023-08-30T07:15:53;10.27;;;5.73;;
5391;SDS011;2719;53.624;9.786;2023-08-30T07:18:19;17.53;;;5.60;;
5391;SDS011;2719;53.624;9.786;2023-08-30T07:20:46;9.57;;;5.80;;
5391;SDS011;2719;53.624;9.786;2023-08-30T07:23:13;10.70;;;6.13;;
5391;SDS011;2719;53.624;9.786;2023-08-30T07:25:41;11.23;;;6.10;;
5391;SDS011;2719;53.624;9.786;2023-08-30T07:28:07;10.10;;;5.33;;
5391;SDS011;2719;53.624;9.786;2023-08-30T07:30:34;9.57;;;6.93;;
5391;SDS011;2719;53.624;9.786;2023-08-30T07:33:01;8.17;;;5.70;;
5391;SDS011;2719;53.624;9.786;2023-08-30T07:35:29;11.30;;;7.27;;
5391;SDS011;2719;53.624;9.786;2023-08-30T07:37:55;11.07;;;6.10;;
5391;SDS011;2719;53.624;9.786;2023-08-30T07:40:22;17.20;;;6.50;;
5391;SDS011;2719;53.624;9.786;2023-08-30T07:42:53;10.20;;;6.37;;
5391;SDS011;2719;53.624;9.786;2023-08-30T07:45:20;8.73;;;6.40;;
5391;SDS011;2719;53.624;9.786;2023-08-30T07:47:47;10.60;;;6.53;;
5391;SDS011;2719;53.624;9.786;2023-08-30T07:50:14;11.80;;;7.60;;
5391;SDS011;2719;53.624;9.786;2023-08-30T07:52:40;8.17;;;6.27;;
5391;SDS011;2719;53.624;9.786;2023-08-30T07:55:07;9.10;;;6.13;;
5391;SDS011;2719;53.624;9.786;2023-08-30T07:57:34;7.60;;;5.23;;
5391;SDS011;2719;53.624;9.786;2023-08-30T08:00:02;11.00;;;6.93;;
5391;SDS011;2719;53.624;9.786;2023-08-30T08:02:30;12.63;;;6.67;;
5391;SDS011;2719;53.624;9.786;2023-08-30T08:04:57;16.37;;;6.83;;
5391;SDS011;2719;53.624;9.786;2023-08-30T08:07:24;16.50;;;6.33;;
5391;SDS011;2719;53.624;9.786;2023-08-30T08:09:50;11.13;;;6.30;;
5391;SDS011;2719;53.624;9.786;2023-08-30T08:12:17;8.47;;;5.50;;
5391;SDS011;2719;53.624;9.786;2023-08-30T08:14:43;9.47;;;5.37;;
5391;SDS011;2719;53.624;9.786;2023-08-30T08:17:11;11.47;;;7.00;;
5391;SDS011;2719;53.624;9.786;2023-08-30T08:19:38;9.70;;;6.80;;
5391;SDS011;2719;53.624;9.786;2023-08-30T08:22:05;9.00;;;6.37;;
5391;SDS011;2719;53.624;9.786;2023-08-30T08:24:31;11.37;;;6.50;;
5391;SDS011;2719;53.624;9.786;2023-08-30T08:26:58;8.60;;;6.10;;
5391;SDS011;2719;53.624;9.786;2023-08-30T08:29:26;6.83;;;4.93;;
5391;SDS011;2719;53.624;9.786;2023-08-30T08:31:53;10.97;;;6.60;;
5391;SDS011;2719;53.624;9.786;2023-08-30T08:34:21;12.00;;;6.03;;
5391;SDS011;2719;53.624;9.786;2023-08-30T08:36:47;7.50;;;5.93;;
5391;SDS011;2719;53.624;9.786;2023-08-30T08:39:14;11.50;;;5.03;;
5391;SDS011;2719;53.624;9.786;2023-08-30T08:41:42;8.90;;;5.73;;
5391;SDS011;2719;53.624;9.786;2023-08-30T08:44:09;11.77;;;6.30;;
5391;SDS011;2719;53.624;9.786;2023-08-30T08:46:38;7.20;;;5.20;;
5391;SDS011;2719;53.624;9.786;2023-08-30T08:49:07;11.80;;;6.20;;
5391;SDS011;2719;53.624;9.786;2023-08-30T08:51:37;8.50;;;5.40;;
5391;SDS011;2719;53.624;9.786;2023-08-30T08:54:05;7.73;;;5.30;;
5391;SDS011;2719;53.624;9.786;2023-08-30T08:56:34;8.93;;;4.97;;
5391;SDS011;2719;53.624;9.786;2023-08-30T08:59:02;7.80;;;5.50;;
5391;SDS011;2719;53.624;9.786;2023-08-30T09:01:29;17.67;;;6.20;;
5391;SDS011;2719;53.624;9.786;2023-08-30T09:03:58;8.83;;;5.53;;
5391;SDS011;2719;53.624;9.786;2023-08-30T09:06:25;9.13;;;6.13;;
5391;SDS011;2719;53.624;9.786;2023-08-30T09:08:55;12.60;;;5.80;;
5391;SDS011;2719;53.624;9.786;2023-08-30T09:11:22;8.83;;;3.30;;
5391;SDS011;2719;53.624;9.786;2023-08-30T09:13:49;7.80;;;4.77;;
5391;SDS011;2719;53.624;9.786;2023-08-30T09:16:16;7.03;;;3.93;;
5391;SDS011;2719;53.624;9.786;2023-08-30T09:18:42;8.93;;;5.30;;
5391;SDS011;2719;53.624;9.786;2023-08-30T09:21:10;11.80;;;4.50;;
5391;SDS011;2719;53.624;9.786;2023-08-30T09:23:37;8.50;;;4.20;;
5391;SDS011;2719;53.624;9.786;2023-08-30T09:26:06;12.40;;;4.87;;
5391;SDS011;2719;53.624;9.786;2023-08-30T09:28:41;13.23;;;4.50;;
5391;SDS011;2719;53.624;9.786;2023-08-30T09:31:16;5.73;;;3.90;;
5391;SDS011;2719;53.624;9.786;2023-08-30T09:33:44;7.80;;;4.10;;
5391;SDS011;2719;53.624;9.786;2023-08-30T09:36:12;5.10;;;3.93;;
5391;SDS011;2719;53.624;9.786;2023-08-30T09:38:39;7.97;;;4.30;;
5391;SDS011;2719;53.624;9.786;2023-08-30T09:41:07;5.50;;;3.60;;
5391;SDS011;2719;53.624;9.786;2023-08-30T09:43:41;10.53;;;3.50;;
5391;SDS011;2719;53.624;9.786;2023-08-30T09:46:08;7.67;;;4.03;;
5391;SDS011;2719;53.624;9.786;2023-08-30T09:48:35;7.33;;;2.90;;
5391;SDS011;2719;53.624;9.786;2023-08-30T09:51:05;7.17;;;4.67;;
5391;SDS011;2719;53.624;9.786;2023-08-30T09:53:36;7.83;;;4.03;;
5391;SDS011;2719;53.624;9.786;2023-08-30T09:56:08;8.23;;;3.80;;
5391;SDS011;2719;53.624;9.786;2023-08-30T09:58:38;5.67;;;3.60;;
5391;SDS011;2719;53.624;9.786;2023-08-30T10:01:06;6.37;;;3.90;;
5391;SDS011;2719;53.624;9.786;2023-08-30T10:03:34;7.23;;;3.27;;
5391;SDS011;2719;53.624;9.786;2023-08-30T10:06:02;9.10;;;3.60;;
5391;SDS011;2719;53.624;9.786;2023-08-30T10:08:30;4.40;;;3.57;;
5391;SDS011;2719;53.624;9.786;2023-08-30T10:11:01;9.40;;;4.60;;
5391;SDS011;2719;53.624;9.786;2023-08-30T10:13:31;8.03;;;3.07;;
5391;SDS011;2719;53.624;9.786;2023-08-30T10:16:01;5.67;;;3.30;;
5391;SDS011;2719;53.624;9.786;2023-08-30T10:18:29;7.37;;;4.50;;
5391;SDS011;2719;53.624;9.786;2023-08-30T10:20:59;7.57;;;3.90;;
5391;SDS011;2719;53.624;9.786;2023-08-30T10:23:28;6.50;;;3.90;;
5391;SDS011;2719;53.624;9.786;2023-08-30T10:25:56;8.40;;;4.27;;
5391;SDS011;2719;53.624;9.786;2023-08-30T10:28:25;8.23;;;4.63;;
5391;SDS011;2719;53.624;9.786;2023-08-30T10:30:54;7.73;;;4.90;;
5391;SDS011;2719;53.624;9.786;2023-08-30T10:33:21;7.20;;;4.53;;
5391;SDS011;2719;53.624;9.786;2023-08-30T10:35:51;9.13;;;4.00;;
5391;SDS011;2719;53.624;9.786;2023-08-30T10:38:24;9.00;;;4.87;;
5391;SDS011;2719;53.624;9.786;2023-08-30T10:40:52;10.50;;;3.50;;
5391;SDS011;2719;53.624;9.786;2023-08-30T10:43:27;8.50;;;3.67;;
5391;SDS011;2719;53.624;9.786;2023-08-30T10:46:00;11.10;;;5.40;;
5391;SDS011;2719;53.624;9.786;2023-08-30T10:48:35;8.10;;;4.70;;
5391;SDS011;2719;53.624;9.786;2023-08-30T10:51:02;7.40;;;3.87;;
5391;SDS011;2719;53.624;9.786;2023-08-30T10:53:30;6.50;;;3.73;;
5391;SDS011;2719;53.624;9.786;2023-08-30T10:56:03;12.20;;;5.10;;
5391;SDS011;2719;53.624;9.786;2023-08-30T10:58:40;6.30;;;3.70;;
5391;SDS011;2719;53.624;9.786;2023-08-30T11:01:10;7.40;;;2.97;;
5391;SDS011;2719;53.624;9.786;2023-08-30T11:03:38;5.20;;;3.47;;
5391;SDS011;2719;53.624;9.786;2023-08-30T11:06:06;5.13;;;3.20;;
5391;SDS011;2719;53.624;9.786;2023-08-30T11:08:32;6.63;;;3.77;;
5391;SDS011;2719;53.624;9.786;2023-08-30T11:11:01;7.00;;;3.27;;
5391;SDS011;2719;53.624;9.786;2023-08-30T11:13:29;6.90;;;3.80;;
5391;SDS011;2719;53.624;9.786;2023-08-30T11:15:59;14.87;;;4.70;;
5391;SDS011;2719;53.624;9.786;2023-08-30T11:18:27;4.90;;;3.97;;
5391;SDS011;2719;53.624;9.786;2023-08-30T11:20:57;18.30;;;4.27;;
5391;SDS011;2719;53.624;9.786;2023-08-30T11:23:25;6.77;;;3.53;;
5391;SDS011;2719;53.624;9.786;2023-08-30T11:25:52;7.20;;;3.90;;
5391;SDS011;2719;53.624;9.786;2023-08-30T11:28:22;12.03;;;4.30;;
5391;SDS011;2719;53.624;9.786;2023-08-30T11:30:49;6.13;;;3.60;;
5391;SDS011;2719;53.624;9.786;2023-08-30T11:33:17;5.10;;;3.83;;
5391;SDS011;2719;53.624;9.786;2023-08-30T11:35:45;7.73;;;3.40;;
5391;SDS011;2719;53.624;9.786;2023-08-30T11:38:15;6.13;;;4.30;;
5391;SDS011;2719;53.624;9.786;2023-08-30T11:40:43;13.27;;;5.20;;
5391;SDS011;2719;53.624;9.786;2023-08-30T11:43:10;9.83;;;5.53;;
5391;SDS011;2719;53.624;9.786;2023-08-30T11:45:37;9.10;;;6.17;;
5391;SDS011;2719;53.624;9.786;2023-08-30T11:48:03;10.20;;;4.70;;
5391;SDS011;2719;53.624;9.786;2023-08-30T11:50:31;9.00;;;5.30;;
5391;SDS011;2719;53.624;9.786;2023-08-30T11:52:59;8.80;;;5.67;;
5391;SDS011;2719;53.624;9.786;2023-08-30T11:55:27;8.93;;;4.53;;
5391;SDS011;2719;53.624;9.786;2023-08-30T11:57:54;7.50;;;4.67;;
5391;SDS011;2719;53.624;9.786;2023-08-30T12:00:21;9.00;;;5.00;;
5391;SDS011;2719;53.624;9.786;2023-08-30T12:02:48;12.30;;;4.70;;
5391;SDS011;2719;53.624;9.786;2023-08-30T12:05:15;9.27;;;5.30;;
5391;SDS011;2719;53.624;9.786;2023-08-30T12:07:42;7.30;;;4.70;;
5391;SDS011;2719;53.624;9.786;2023-08-30T12:10:10;10.23;;;4.70;;
5391;SDS011;2719;53.624;9.786;2023-08-30T12:12:37;8.37;;;4.47;;
5391;SDS011;2719;53.624;9.786;2023-08-30T12:15:11;7.70;;;5.00;;
5391;SDS011;2719;53.624;9.786;2023-08-30T12:17:38;8.30;;;4.13;;
5391;SDS011;2719;53.624;9.786;2023-08-30T12:20:05;13.10;;;5.53;;
5391;SDS011;2719;53.624;9.786;2023-08-30T12:22:40;10.37;;;5.00;;
5391;SDS011;2719;53.624;9.786;2023-08-30T12:25:16;13.93;;;5.60;;
5391;SDS011;2719;53.624;9.786;2023-08-30T12:27:44;8.00;;;5.87;;
5391;SDS011;2719;53.624;9.786;2023-08-30T12:30:11;11.03;;;5.83;;
5391;SDS011;2719;53.624;9.786;2023-08-30T12:32:39;10.00;;;5.73;;
5391;SDS011;2719;53.624;9.786;2023-08-30T12:35:05;9.07;;;6.00;;
5391;SDS011;2719;53.624;9.786;2023-08-30T12:37:33;8.13;;;5.30;;
5391;SDS011;2719;53.624;9.786;2023-08-30T12:39:59;9.87;;;5.80;;
5391;SDS011;2719;53.624;9.786;2023-08-30T12:42:27;9.20;;;4.37;;
5391;SDS011;2719;53.624;9.786;2023-08-30T12:44:54;12.37;;;5.90;;
5391;SDS011;2719;53.624;9.786;2023-08-30T12:47:21;6.47;;;4.00;;
5391;SDS011;2719;53.624;9.786;2023-08-30T12:49:47;7.10;;;4.80;;
5391;SDS011;2719;53.624;9.786;2023-08-30T12:52:14;19.70;;;3.70;;
5391;SDS011;2719;53.624;9.786;2023-08-30T12:54:41;5.57;;;3.67;;
5391;SDS011;2719;53.624;9.786;2023-08-30T12:57:08;8.47;;;4.10;;
5391;SDS011;2719;53.624;9.786;2023-08-30T12:59:36;6.17;;;2.87;;
5391;SDS011;2719;53.624;9.786;2023-08-30T13:02:03;5.27;;;3.77;;
5391;SDS011;2719;53.624;9.786;2023-08-30T13:04:30;6.37;;;3.73;;
5391;SDS011;2719;53.624;9.786;2023-08-30T13:06:57;5.10;;;2.90;;
5391;SDS011;2719;53.624;9.786;2023-08-30T13:09:24;19.43;;;4.50;;
5391;SDS011;2719;53.624;9.786;2023-08-30T13:11:51;6.53;;;3.80;;
5391;SDS011;2719;53.624;9.786;2023-08-30T13:14:17;7.33;;;3.90;;
5391;SDS011;2719;53.624;9.786;2023-08-30T13:16:45;6.40;;;2.90;;
5391;SDS011;2719;53.624;9.786;2023-08-30T13:19:12;6.57;;;4.37;;
5391;SDS011;2719;53.624;9.786;2023-08-30T13:21:39;7.43;;;3.30;;
5391;SDS011;2719;53.624;9.786;2023-08-30T13:24:07;5.33;;;2.60;;
5391;SDS011;2719;53.624;9.786;2023-08-30T13:26:34;10.20;;;2.70;;
5391;SDS011;2719;53.624;9.786;2023-08-30T13:29:01;5.37;;;2.87;;
5391;SDS011;2719;53.624;9.786;2023-08-30T13:31:28;5.23;;;2.63;;
5391;SDS011;2719;53.624;9.786;2023-08-30T13:33:56;4.60;;;2.60;;
5391;SDS011;2719;53.624;9.786;2023-08-30T13:36:23;4.70;;;2.67;;
5391;SDS011;2719;53.624;9.786;2023-08-30T13:38:50;4.70;;;2.53;;
5391;SDS011;2719;53.624;9.786;2023-08-30T13:41:18;3.57;;;2.37;;
5391;SDS011;2719;53.624;9.786;2023-08-30T13:43:44;8.23;;;2.97;;
5391;SDS011;2719;53.624;9.786;2023-08-30T13:46:11;9.17;;;2.80;;
5391;SDS011;2719;53.624;9.786;2023-08-30T13:48:38;6.80;;;2.97;;
5391;SDS011;2719;53.624;9.786;2023-08-30T13:51:06;4.90;;;2.80;;
5391;SDS011;2719;53.624;9.786;2023-08-30T13:53:33;8.07;;;2.60;;
5391;SDS011;2719;53.624;9.786;2023-08-30T13:55:59;4.50;;;2.30;;
5391;SDS011;2719;53.624;9.786;2023-08-30T13:58:26;4.17;;;2.43;;
5391;SDS011;2719;53.624;9.786;2023-08-30T14:00:52;3.57;;;2.10;;
5391;SDS011;2719;53.624;9.786;2023-08-30T14:03:20;6.00;;;2.60;;
5391;SDS011;2719;53.624;9.786;2023-08-30T14:05:46;5.43;;;2.17;;
5391;SDS011;2719;53.624;9.786;2023-08-30T14:08:14;4.67;;;2.30;;
5391;SDS011;2719;53.624;9.786;2023-08-30T14:10:41;6.43;;;2.30;;
5391;SDS011;2719;53.624;9.786;2023-08-30T14:13:08;7.40;;;2.57;;
5391;SDS011;2719;53.624;9.786;2023-08-30T14:15:34;4.97;;;2.13;;
5391;SDS011;2719;53.624;9.786;2023-08-30T14:18:01;6.60;;;2.73;;
5391;SDS011;2719;53.624;9.786;2023-08-30T14:20:28;6.40;;;2.93;;
5391;SDS011;2719;53.624;9.786;2023-08-30T14:22:54;3.10;;;2.27;;
5391;SDS011;2719;53.624;9.786;2023-08-30T14:25:22;6.80;;;2.70;;
5391;SDS011;2719;53.624;9.786;2023-08-30T14:27:49;5.70;;;2.13;;
5391;SDS011;2719;53.624;9.786;2023-08-30T14:30:16;3.70;;;1.60;;
5391;SDS011;2719;53.624;9.786;2023-08-30T14:32:43;5.37;;;2.90;;
5391;SDS011;2719;53.624;9.786;2023-08-30T14:35:10;6.60;;;2.17;;
5391;SDS011;2719;53.624;9.786;2023-08-30T14:37:37;8.10;;;1.90;;
5391;SDS011;2719;53.624;9.786;2023-08-30T14:40:05;5.83;;;2.50;;
5391;SDS011;2719;53.624;9.786;2023-08-30T14:42:34;6.47;;;2.70;;
5391;SDS011;2719;53.624;9.786;2023-08-30T14:45:00;3.97;;;2.20;;
5391;SDS011;2719;53.624;9.786;2023-08-30T14:47:28;2.93;;;1.60;;
5391;SDS011;2719;53.624;9.786;2023-08-30T14:49:56;2.87;;;1.80;;
5391;SDS011;2719;53.624;9.786;2023-08-30T14:52:22;5.33;;;2.07;;
5391;SDS011;2719;53.624;9.786;2023-08-30T14:54:49;4.00;;;1.97;;
5391;SDS011;2719;53.624;9.786;2023-08-30T14:57:16;3.43;;;2.10;;
5391;SDS011;2719;53.624;9.786;2023-08-30T14:59:44;3.40;;;1.93;;
5391;SDS011;2719;53.624;9.786;2023-08-30T15:02:10;4.17;;;2.20;;
5391;SDS011;2719;53.624;9.786;2023-08-30T15:04:37;8.73;;;2.30;;
5391;SDS011;2719;53.624;9.786;2023-08-30T15:07:03;4.30;;;2.00;;
5391;SDS011;2719;53.624;9.786;2023-08-30T15:09:30;7.30;;;2.60;;
5391;SDS011;2719;53.624;9.786;2023-08-30T15:11:57;5.07;;;2.30;;
5391;SDS011;2719;53.624;9.786;2023-08-30T15:14:24;5.77;;;2.50;;